createdAt,value
2019-03-01T00:02:07.332Z,19.27
2019-03-01T00:04:52.656Z,20.20
2019-03-01T00:07:57.550Z,21.10
2019-03-01T00:11:20.479Z,20.97
2019-03-01T00:14:18.975Z,21.17
2019-03-01T00:17:23.953Z,20.73
2019-03-01T00:20:40.749Z,19.57
2019-03-01T00:23:26.211Z,21.70
2019-03-01T00:26:37.013Z,21.23
2019-03-01T00:30:03.393Z,20.77
2019-03-01T00:32:53.671Z,20.67
2019-03-01T00:36:09.110Z,22.37
2019-03-01T00:38:54.253Z,22.23
2019-03-01T00:41:38.434Z,22.73
2019-03-01T00:44:48.364Z,22.43
2019-03-01T00:47:18.418Z,21.47
2019-03-01T00:49:48.377Z,24.03
2019-03-01T00:52:18.077Z,22.70
2019-03-01T00:54:47.822Z,22.67
2019-03-01T00:57:17.502Z,20.75
2019-03-01T00:59:47.284Z,23.40
2019-03-01T01:02:17.040Z,22.50
2019-03-01T01:04:46.836Z,23.60
2019-03-01T01:07:16.546Z,24.40
2019-03-01T01:09:46.239Z,22.37
2019-03-01T01:12:16.551Z,24.13
2019-03-01T01:14:46.472Z,22.10
2019-03-01T01:17:16.483Z,24.12
2019-03-01T01:19:46.278Z,22.60
2019-03-01T01:22:16.229Z,22.07
2019-03-01T01:24:45.913Z,24.90
2019-03-01T01:27:15.668Z,22.40
2019-03-01T01:29:45.998Z,24.50
2019-03-01T01:32:15.704Z,24.57
2019-03-01T01:34:45.394Z,24.70
2019-03-01T01:37:15.330Z,25.10
2019-03-01T01:39:45.010Z,23.77
2019-03-01T01:42:14.693Z,24.10
2019-03-01T01:44:44.773Z,26.67
2019-03-01T01:47:14.468Z,26.12
2019-03-01T01:49:44.145Z,28.03
2019-03-01T01:52:14.951Z,26.23
2019-03-01T01:54:44.675Z,27.87
2019-03-01T01:57:14.504Z,27.80
2019-03-01T01:59:45.466Z,27.50
2019-03-01T02:02:15.239Z,28.03
2019-03-01T02:04:45.161Z,25.70
2019-03-01T02:07:14.834Z,28.87
2019-03-01T02:09:44.954Z,27.95
2019-03-01T02:12:15.904Z,32.67
2019-03-01T02:14:45.670Z,30.57
2019-03-01T02:17:15.418Z,29.27
2019-03-01T02:19:45.254Z,29.07
2019-03-01T02:22:15.093Z,28.95
2019-03-01T02:24:44.820Z,27.50
2019-03-01T02:27:21.894Z,26.97
2019-03-01T02:29:51.729Z,29.43
2019-03-01T02:32:59.902Z,31.90
2019-03-01T02:35:29.666Z,28.47
2019-03-01T02:37:59.410Z,28.73
2019-03-01T02:40:29.639Z,26.47
2019-03-01T02:42:59.381Z,29.77
2019-03-01T02:45:29.073Z,29.57
2019-03-01T02:47:58.756Z,28.70
2019-03-01T02:50:28.510Z,30.83
2019-03-01T02:52:59.238Z,30.27
2019-03-01T02:55:29.252Z,31.43
2019-03-01T02:57:58.929Z,26.50
2019-03-01T03:00:28.904Z,29.33
2019-03-01T03:02:58.649Z,29.43
2019-03-01T03:05:28.389Z,29.03
2019-03-01T03:07:59.998Z,31.20
2019-03-01T03:10:29.968Z,32.07
2019-03-01T03:13:02.026Z,32.40
2019-03-01T03:15:34.267Z,31.73
2019-03-01T03:18:04.083Z,28.43
2019-03-01T03:20:33.988Z,29.27
2019-03-01T03:23:03.758Z,30.50
2019-03-01T03:25:33.423Z,32.73
2019-03-01T03:28:03.509Z,30.83
2019-03-01T03:30:33.347Z,33.43
2019-03-01T03:33:03.635Z,31.37
2019-03-01T03:35:33.352Z,31.10
2019-03-01T03:38:03.115Z,32.13
2019-03-01T03:40:32.918Z,32.50
2019-03-01T03:43:02.674Z,28.63
2019-03-01T03:45:32.445Z,32.50
2019-03-01T03:48:02.137Z,31.83
2019-03-01T03:50:31.915Z,31.60
2019-03-01T03:53:01.634Z,29.93
2019-03-01T03:55:31.487Z,29.40
2019-03-01T03:58:01.501Z,32.80
2019-03-01T04:00:31.428Z,28.93
2019-03-01T04:03:01.567Z,31.33
2019-03-01T04:05:31.340Z,28.03
2019-03-01T04:08:01.024Z,31.00
2019-03-01T04:10:30.726Z,29.70
2019-03-01T04:13:01.839Z,30.73
2019-03-01T04:15:31.756Z,29.87
2019-03-01T04:18:01.432Z,27.50
2019-03-01T04:20:31.159Z,26.97
2019-03-01T04:23:00.841Z,35.20
2019-03-01T04:25:30.638Z,28.80
2019-03-01T04:28:00.491Z,28.13
2019-03-01T04:30:30.329Z,29.37
2019-03-01T04:32:59.995Z,28.23
2019-03-01T04:35:29.759Z,35.03
2019-03-01T04:37:59.452Z,33.67
2019-03-01T04:40:29.150Z,28.13
2019-03-01T04:42:58.848Z,31.73
2019-03-01T04:45:28.647Z,27.70
2019-03-01T04:47:58.396Z,30.93
2019-03-01T04:50:28.383Z,29.33
2019-03-01T04:52:58.302Z,27.37
2019-03-01T04:55:28.416Z,29.77
2019-03-01T04:57:58.104Z,28.17
2019-03-01T05:00:27.793Z,31.73
2019-03-01T05:02:57.639Z,33.03
2019-03-01T05:05:27.598Z,33.30
2019-03-01T05:07:57.292Z,37.27
2019-03-01T05:10:27.022Z,32.87
2019-03-01T05:12:57.726Z,33.87
2019-03-01T05:15:27.448Z,33.73
2019-03-01T05:17:57.143Z,33.17
2019-03-01T05:20:26.846Z,33.70
2019-03-01T05:22:56.548Z,35.07
2019-03-01T05:25:26.252Z,35.40
2019-03-01T05:27:56.209Z,30.90
2019-03-01T05:30:25.987Z,35.03
2019-03-01T05:32:55.920Z,34.23
2019-03-01T05:35:25.666Z,32.27
2019-03-01T05:37:55.522Z,36.63
2019-03-01T05:40:25.387Z,36.13
2019-03-01T05:42:55.062Z,29.57
2019-03-01T05:45:24.801Z,35.27
2019-03-01T05:47:54.544Z,39.03
2019-03-01T05:50:24.262Z,37.80
2019-03-01T05:52:54.202Z,35.30
2019-03-01T05:55:24.043Z,39.83
2019-03-01T05:58:23.784Z,33.67
2019-03-01T06:00:53.679Z,35.93
2019-03-01T06:04:04.977Z,34.20
2019-03-01T06:06:59.466Z,34.93
2019-03-01T06:09:42.486Z,30.90
2019-03-01T06:12:44.334Z,32.33
2019-03-01T06:16:13.520Z,29.20
2019-03-01T06:19:06.952Z,29.30
2019-03-01T06:22:07.523Z,24.97
2019-03-01T06:25:04.651Z,24.83
2019-03-01T06:27:51.538Z,25.77
2019-03-01T06:30:51.930Z,30.50
2019-03-01T06:34:09.477Z,29.23
2019-03-01T06:37:18.350Z,29.03
2019-03-01T06:40:23.058Z,27.90
2019-03-01T06:43:04.172Z,27.25
2019-03-01T06:45:45.823Z,29.33
2019-03-01T06:48:25.172Z,28.38
2019-03-01T06:50:59.642Z,29.83
2019-03-01T06:53:29.397Z,32.43
2019-03-01T06:56:01.736Z,33.77
2019-03-01T06:58:36.923Z,29.17
2019-03-01T07:01:10.680Z,39.67
2019-03-01T07:03:46.859Z,37.70
2019-03-01T07:06:21.542Z,34.63
2019-03-01T07:08:51.262Z,38.67
2019-03-01T07:11:21.214Z,40.93
2019-03-01T07:13:50.930Z,38.47
2019-03-01T07:16:21.096Z,37.37
2019-03-01T07:18:50.786Z,43.17
2019-03-01T07:21:20.496Z,43.73
2019-03-01T07:23:50.163Z,36.90
2019-03-01T07:26:19.977Z,35.38
2019-03-01T07:28:49.924Z,34.20
2019-03-01T07:31:19.590Z,35.60
2019-03-01T07:33:49.298Z,37.47
2019-03-01T07:36:19.009Z,34.98
2019-03-01T07:38:48.766Z,40.40
2019-03-01T07:41:18.456Z,36.57
2019-03-01T07:43:48.505Z,33.17
2019-03-01T07:46:18.319Z,36.67
2019-03-01T07:48:48.281Z,36.77
2019-03-01T07:51:18.009Z,36.13
2019-03-01T07:53:47.694Z,34.90
2019-03-01T07:56:17.415Z,36.37
2019-03-01T07:58:47.334Z,37.00
2019-03-01T08:01:17.128Z,38.70
2019-03-01T08:03:52.264Z,35.33
2019-03-01T08:06:18.473Z,37.77
2019-03-01T08:08:48.387Z,37.77
2019-03-01T08:11:18.177Z,36.47
2019-03-01T08:13:49.395Z,39.67
2019-03-01T08:16:21.501Z,43.97
2019-03-01T08:18:52.226Z,39.60
2019-03-01T08:21:21.994Z,44.45
2019-03-01T08:23:51.672Z,45.97
2019-03-01T08:26:21.355Z,37.53
2019-03-01T08:28:51.089Z,36.57
2019-03-01T08:31:21.205Z,41.77
2019-03-01T08:33:52.000Z,38.47
2019-03-01T08:36:21.749Z,40.40
2019-03-01T08:38:51.693Z,39.33
2019-03-01T08:41:24.666Z,33.27
2019-03-01T08:43:52.998Z,32.53
2019-03-01T08:46:22.661Z,33.70
2019-03-01T08:48:52.469Z,32.97
2019-03-01T08:51:22.661Z,29.30
2019-03-01T08:53:53.600Z,33.57
2019-03-01T08:56:26.094Z,26.37
2019-03-01T08:58:54.670Z,25.07
2019-03-01T09:01:24.564Z,23.57
2019-03-01T09:04:00.288Z,21.07
2019-03-01T09:06:30.267Z,20.43
2019-03-01T09:09:01.389Z,23.43
2019-03-01T09:11:32.920Z,19.17
2019-03-01T09:14:02.992Z,19.50
2019-03-01T09:16:32.736Z,21.00
2019-03-01T09:19:02.530Z,21.43
2019-03-01T09:21:32.361Z,21.33
2019-03-01T09:24:02.027Z,22.07
2019-03-01T09:26:31.695Z,20.40
2019-03-01T09:29:01.379Z,19.60
2019-03-01T09:31:31.370Z,18.20
2019-03-01T09:34:01.115Z,19.43
2019-03-01T09:36:40.576Z,21.67
2019-03-01T09:39:10.597Z,18.87
2019-03-01T09:41:41.531Z,18.40
2019-03-01T09:44:11.353Z,17.43
2019-03-01T09:46:41.056Z,15.43
2019-03-01T09:49:11.148Z,16.35
2019-03-01T09:51:43.665Z,17.40
2019-03-01T09:54:12.274Z,17.40
2019-03-01T09:56:42.621Z,16.20
2019-03-01T09:59:12.341Z,16.67
2019-03-01T10:01:41.993Z,20.00
2019-03-01T10:04:11.893Z,20.23
2019-03-01T10:06:41.593Z,21.03
2019-03-01T10:09:11.985Z,23.02
2019-03-01T10:11:41.998Z,21.00
2019-03-01T10:14:11.737Z,22.60
2019-03-01T10:16:41.491Z,22.93
2019-03-01T10:19:11.334Z,23.37
2019-03-01T10:21:41.010Z,21.27
2019-03-01T10:24:10.709Z,23.03
2019-03-01T10:26:40.399Z,22.40
2019-03-01T10:29:10.308Z,17.60
2019-03-01T10:31:40.012Z,18.63
2019-03-01T10:34:09.664Z,16.07
2019-03-01T10:36:39.456Z,15.80
2019-03-01T10:39:13.943Z,14.73
2019-03-01T10:41:43.716Z,15.63
2019-03-01T10:44:13.393Z,12.98
2019-03-01T10:46:43.074Z,12.97
2019-03-01T10:49:13.720Z,10.93
2019-03-01T10:51:43.519Z,10.77
2019-03-01T10:54:13.233Z,11.50
2019-03-01T10:56:42.918Z,10.17
2019-03-01T10:59:12.605Z,10.88
2019-03-01T11:01:42.343Z,10.20
2019-03-01T11:04:12.280Z,10.50
2019-03-01T11:06:41.947Z,10.00
2019-03-01T11:09:13.866Z,8.55
2019-03-01T11:11:43.601Z,7.73
2019-03-01T11:14:13.515Z,7.87
2019-03-01T11:16:43.199Z,8.80
2019-03-01T11:19:12.920Z,9.40
2019-03-01T11:21:42.644Z,9.67
2019-03-01T11:24:12.431Z,9.73
2019-03-01T11:26:42.150Z,10.40
2019-03-01T11:29:11.810Z,10.33
2019-03-01T11:31:41.565Z,10.53
2019-03-01T11:34:11.288Z,11.50
2019-03-01T11:36:42.017Z,10.17
2019-03-01T11:39:11.950Z,13.13
2019-03-01T11:41:41.617Z,12.30
2019-03-01T11:44:11.379Z,12.85
2019-03-01T11:46:42.070Z,12.77
2019-03-01T11:49:11.767Z,13.73
2019-03-01T11:51:42.441Z,13.90
2019-03-01T11:54:12.378Z,14.27
2019-03-01T11:56:42.049Z,14.50
2019-03-01T11:59:11.742Z,13.47
2019-03-01T12:01:41.492Z,13.57
2019-03-01T12:04:11.192Z,14.57
2019-03-01T12:06:40.873Z,15.63
2019-03-01T12:09:10.983Z,14.63
2019-03-01T12:11:40.762Z,15.63
2019-03-01T12:14:10.440Z,14.90
2019-03-01T12:16:40.579Z,15.57
2019-03-01T12:19:10.289Z,15.47
2019-03-01T12:21:40.032Z,17.43
2019-03-01T12:24:09.877Z,15.67
2019-03-01T12:26:39.550Z,13.90
2019-03-01T12:29:09.314Z,14.73
2019-03-01T12:31:39.020Z,14.03
2019-03-01T12:34:08.694Z,13.75
2019-03-01T12:36:38.726Z,12.23
2019-03-01T12:39:10.022Z,12.40
2019-03-01T12:41:41.432Z,12.70
2019-03-01T12:44:11.172Z,11.50
2019-03-01T12:46:40.850Z,10.25
2019-03-01T12:49:11.597Z,10.37
2019-03-01T12:51:41.543Z,10.67
2019-03-01T12:54:11.396Z,12.20
2019-03-01T12:56:41.083Z,11.50
2019-03-01T12:59:11.572Z,11.97
2019-03-01T13:01:41.824Z,11.03
2019-03-01T13:04:11.538Z,11.00
2019-03-01T13:06:41.208Z,9.73
2019-03-01T13:09:16.048Z,9.07
2019-03-01T13:11:48.656Z,8.20
2019-03-01T13:14:17.521Z,7.28
2019-03-01T13:16:47.274Z,6.80
2019-03-01T13:19:16.951Z,6.50
2019-03-01T13:21:49.139Z,6.80
2019-03-01T13:24:18.355Z,7.60
2019-03-01T13:27:00.649Z,6.10
2019-03-01T13:29:30.633Z,6.03
2019-03-01T13:32:00.301Z,6.27
2019-03-01T13:34:29.967Z,4.90
2019-03-01T13:36:59.654Z,5.77
2019-03-01T13:39:29.320Z,6.40
2019-03-01T13:41:59.256Z,5.70
2019-03-01T13:44:28.922Z,5.97
2019-03-01T13:46:58.596Z,5.73
2019-03-01T13:49:30.409Z,6.43
2019-03-01T13:51:59.831Z,5.10
2019-03-01T13:54:29.866Z,5.73
2019-03-01T13:56:59.806Z,5.47
2019-03-01T13:59:29.500Z,5.40
2019-03-01T14:01:59.279Z,5.17
2019-03-01T14:04:29.003Z,5.40
2019-03-01T14:06:58.691Z,5.37
2019-03-01T14:09:28.614Z,5.63
2019-03-01T14:11:59.333Z,5.03
2019-03-01T14:14:30.258Z,5.13
2019-03-01T14:17:00.019Z,5.13
2019-03-01T14:19:30.071Z,5.15
2019-03-01T14:21:59.736Z,4.83
2019-03-01T14:24:30.332Z,4.43
2019-03-01T14:27:01.242Z,4.57
2019-03-01T14:29:31.020Z,3.97
2019-03-01T14:32:00.919Z,4.30
2019-03-01T14:34:30.826Z,3.93
2019-03-01T14:37:01.415Z,4.13
2019-03-01T14:39:31.193Z,4.03
2019-03-01T14:42:00.891Z,3.77
2019-03-01T14:44:33.865Z,4.30
2019-03-01T14:47:03.430Z,4.87
2019-03-01T14:49:33.129Z,5.63
2019-03-01T14:52:02.874Z,5.10
2019-03-01T14:54:32.587Z,4.60
2019-03-01T14:57:09.916Z,3.80
2019-03-01T14:59:54.964Z,4.07
2019-03-01T15:02:30.988Z,4.00
2019-03-01T15:05:05.481Z,4.20
2019-03-01T15:07:33.047Z,3.97
2019-03-01T15:10:02.985Z,4.73
2019-03-01T15:12:33.709Z,3.40
2019-03-01T15:15:03.600Z,4.43
2019-03-01T15:17:33.617Z,4.43
2019-03-01T15:20:03.358Z,3.67
2019-03-01T15:22:33.310Z,3.93
2019-03-01T15:25:02.976Z,4.00
2019-03-01T15:27:32.636Z,3.63
2019-03-01T15:30:05.638Z,3.80
2019-03-01T15:32:36.185Z,3.87
2019-03-01T15:35:06.358Z,3.80
2019-03-01T15:37:36.416Z,3.90
2019-03-01T15:40:07.379Z,3.92
2019-03-01T15:42:37.147Z,4.00
2019-03-01T15:45:07.799Z,3.77
2019-03-01T15:47:37.462Z,4.47
2019-03-01T15:50:08.878Z,4.07
2019-03-01T15:52:38.696Z,3.33
2019-03-01T15:55:11.829Z,3.80
2019-03-01T15:57:41.435Z,3.83
2019-03-01T16:00:11.376Z,3.70
2019-03-01T16:02:41.273Z,3.87
2019-03-01T16:05:11.332Z,3.17
2019-03-01T16:07:40.995Z,3.20
2019-03-01T16:10:11.177Z,3.10
2019-03-01T16:12:40.952Z,3.33
2019-03-01T16:15:12.008Z,3.73
2019-03-01T16:17:41.801Z,3.47
2019-03-01T16:20:12.837Z,3.73
2019-03-01T16:22:42.645Z,3.37
2019-03-01T16:25:13.197Z,4.27
2019-03-01T16:27:42.981Z,4.17
2019-03-01T16:30:14.550Z,4.10
2019-03-01T16:32:49.709Z,4.07
2019-03-01T16:35:18.468Z,5.03
2019-03-01T16:37:49.580Z,4.50
2019-03-01T16:40:19.835Z,4.43
2019-03-01T16:42:54.312Z,4.60
2019-03-01T16:45:21.998Z,5.30
2019-03-01T16:47:51.638Z,4.50
2019-03-01T16:50:21.659Z,4.13
2019-03-01T16:52:51.383Z,4.57
2019-03-01T16:55:24.487Z,4.17
2019-03-01T16:57:54.976Z,4.17
2019-03-01T17:00:24.253Z,3.67
2019-03-01T17:02:53.995Z,4.30
2019-03-01T17:05:24.001Z,4.33
2019-03-01T17:07:53.741Z,4.22
2019-03-01T17:10:26.434Z,4.47
2019-03-01T17:12:55.140Z,4.00
2019-03-01T17:15:24.908Z,4.17
2019-03-01T17:17:54.663Z,4.53
2019-03-01T17:20:24.348Z,4.47
2019-03-01T17:22:54.105Z,4.60
2019-03-01T17:25:26.725Z,4.83
2019-03-01T17:27:55.639Z,4.53
2019-03-01T17:30:25.788Z,5.53
2019-03-01T17:32:55.732Z,5.90
2019-03-01T17:35:25.518Z,5.23
2019-03-01T17:37:55.183Z,4.13
2019-03-01T17:40:24.881Z,4.40
2019-03-01T17:42:56.432Z,4.87
2019-03-01T17:45:25.945Z,5.67
2019-03-01T17:47:55.705Z,4.60
2019-03-01T17:50:25.601Z,4.70
2019-03-01T17:52:55.284Z,4.90
2019-03-01T17:55:25.045Z,5.63
2019-03-01T17:57:54.803Z,4.97
2019-03-01T18:00:30.541Z,4.90
2019-03-01T18:03:00.246Z,5.60
2019-03-01T18:05:30.006Z,5.13
2019-03-01T18:08:03.202Z,4.90
2019-03-01T18:10:33.045Z,3.83
2019-03-01T18:13:02.822Z,4.33
2019-03-01T18:15:32.564Z,4.40
2019-03-01T18:18:02.231Z,5.83
2019-03-01T18:20:33.887Z,5.33
2019-03-01T18:23:04.966Z,4.33
2019-03-01T18:25:34.823Z,4.33
2019-03-01T18:28:05.493Z,4.70
2019-03-01T18:30:35.296Z,4.40
2019-03-01T18:33:05.127Z,6.47
2019-03-01T18:35:34.951Z,5.73
2019-03-01T18:38:05.170Z,4.13
2019-03-01T18:40:34.834Z,4.40
2019-03-01T18:43:05.039Z,4.30
2019-03-01T18:45:34.783Z,3.90
2019-03-01T18:48:08.695Z,4.10
2019-03-01T18:50:36.665Z,3.83
2019-03-01T18:53:06.400Z,4.10
2019-03-01T18:55:36.170Z,4.20
2019-03-01T18:58:06.115Z,4.37
2019-03-01T19:00:37.088Z,4.17
2019-03-01T19:03:06.952Z,4.60
2019-03-01T19:05:40.032Z,4.23
2019-03-01T19:08:08.776Z,4.70
2019-03-01T19:10:38.609Z,3.90
2019-03-01T19:13:08.376Z,4.03
2019-03-01T19:15:38.319Z,5.13
2019-03-01T19:18:08.070Z,5.60
2019-03-01T19:20:41.580Z,5.80
2019-03-01T19:23:10.329Z,4.70
2019-03-01T19:25:40.150Z,3.70
2019-03-01T19:28:09.911Z,3.33
2019-03-01T19:30:40.563Z,2.67
2019-03-01T19:33:10.308Z,3.40
2019-03-01T19:35:40.047Z,2.87
2019-03-01T19:38:09.821Z,2.92
2019-03-01T19:40:39.540Z,2.93
2019-03-01T19:43:10.267Z,3.60
2019-03-01T19:45:41.826Z,3.43
2019-03-01T19:48:11.568Z,2.70
2019-03-01T19:50:41.260Z,2.70
2019-03-01T19:53:10.965Z,2.50
2019-03-01T19:55:40.640Z,2.80
2019-03-01T19:58:12.779Z,2.72
2019-03-01T20:00:43.552Z,2.90
2019-03-01T20:03:13.215Z,3.03
2019-03-01T20:05:42.953Z,3.00
2019-03-01T20:08:12.654Z,2.97
2019-03-01T20:10:42.396Z,3.30
2019-03-01T20:13:16.449Z,3.17
2019-03-01T20:15:46.041Z,2.80
2019-03-01T20:18:16.182Z,4.05
2019-03-01T20:20:45.948Z,2.70
2019-03-01T20:23:15.619Z,3.25
2019-03-01T20:25:47.483Z,3.87
2019-03-01T20:28:16.945Z,2.80
2019-03-01T20:30:46.895Z,4.73
2019-03-01T20:33:16.575Z,6.07
2019-03-01T20:35:46.512Z,4.37
2019-03-01T20:38:17.052Z,3.50
2019-03-01T20:40:46.868Z,2.63
2019-03-01T20:43:16.553Z,3.23
2019-03-01T20:45:46.558Z,3.47
2019-03-01T20:48:16.293Z,2.67
2019-03-01T20:50:47.619Z,3.33
2019-03-01T20:53:17.578Z,10.80
2019-03-01T20:55:47.227Z,4.90
2019-03-01T20:58:17.016Z,4.15
2019-03-01T21:00:46.725Z,4.17
2019-03-01T21:03:16.413Z,10.10
2019-03-01T21:05:46.115Z,5.10
2019-03-01T21:08:15.852Z,3.62
2019-03-01T21:10:46.855Z,3.97
2019-03-01T21:13:16.990Z,3.60
2019-03-01T21:15:46.696Z,3.60
2019-03-01T21:18:16.382Z,3.65
2019-03-01T21:20:46.076Z,3.47
2019-03-01T21:23:15.948Z,3.33
2019-03-01T21:25:45.623Z,3.40
2019-03-01T21:28:15.415Z,3.60
2019-03-01T21:30:45.677Z,4.17
2019-03-01T21:33:15.939Z,4.60
2019-03-01T21:35:47.765Z,7.03
2019-03-01T21:38:17.351Z,6.67
2019-03-01T21:40:47.593Z,7.50
2019-03-01T21:43:18.225Z,6.30
2019-03-01T21:45:48.291Z,7.53
2019-03-01T21:48:18.675Z,6.40
2019-03-01T21:50:48.425Z,5.30
2019-03-01T21:53:18.119Z,6.30
2019-03-01T21:55:47.912Z,5.83
2019-03-01T21:58:17.585Z,4.57
2019-03-01T22:00:47.377Z,4.10
2019-03-01T22:03:17.226Z,4.40
2019-03-01T22:05:48.589Z,5.60
2019-03-01T22:08:18.262Z,14.00
2019-03-01T22:10:48.020Z,9.70
2019-03-01T22:13:17.796Z,7.70
2019-03-01T22:15:47.499Z,7.23
2019-03-01T22:18:20.369Z,6.03
2019-03-01T22:20:49.135Z,4.87
2019-03-01T22:23:19.054Z,4.13
2019-03-01T22:25:48.752Z,4.45
2019-03-01T22:28:18.521Z,4.20
2019-03-01T22:30:48.184Z,4.40
2019-03-01T22:33:20.864Z,3.90
2019-03-01T22:35:49.323Z,4.60
2019-03-01T22:38:19.243Z,4.30
2019-03-01T22:40:48.913Z,3.60
2019-03-01T22:43:18.635Z,4.93
2019-03-01T22:45:48.919Z,3.83
2019-03-01T22:48:18.688Z,4.25
2019-03-01T22:50:48.371Z,4.30
2019-03-01T22:53:18.096Z,3.77
2019-03-01T22:55:47.932Z,4.03
2019-03-01T22:58:17.585Z,4.70
2019-03-01T23:01:07.287Z,4.87
2019-03-01T23:03:38.662Z,4.37
2019-03-01T23:06:11.656Z,7.23
2019-03-01T23:08:39.946Z,11.47
2019-03-01T23:11:09.692Z,7.47
2019-03-01T23:13:39.363Z,5.93
2019-03-01T23:16:09.275Z,4.67
2019-03-01T23:18:40.452Z,4.23
2019-03-01T23:21:11.186Z,5.00
2019-03-01T23:23:41.092Z,4.30
2019-03-01T23:26:10.767Z,4.10
2019-03-01T23:28:40.940Z,3.30
2019-03-01T23:31:12.225Z,3.03
2019-03-01T23:33:41.913Z,2.33
2019-03-01T23:36:12.926Z,2.80
2019-03-01T23:38:42.571Z,2.60
2019-03-01T23:41:12.703Z,2.10
2019-03-01T23:43:42.493Z,2.67
2019-03-01T23:46:12.316Z,2.42
2019-03-01T23:48:45.524Z,2.07
2019-03-01T23:51:14.488Z,2.25
2019-03-01T23:53:44.469Z,2.00
2019-03-01T23:56:14.171Z,1.90
2019-03-01T23:58:44.143Z,1.90
